Time;durP1;ratioP1;P1;durP2;ratioP2;P2;SDS_P1;SDS_P2;PMS_P1;PMS_P2;Temp;Humidity;BMP_temperature;BMP_pressure;BME280_temperature;BME280_humidity;BME280_pressure;Samples;Min_cycle;Max_cycle;Signal;HPM_P1;HPM_P2
2021/05/07 00:01:41;;;;;;;3.80;3.40;;;6.30;99.90;;;;;;5034692;28;20329;-51
2021/05/07 00:04:08;;;;;;;5.70;4.37;;;6.40;99.90;;;;;;5034953;28;20213;-51
2021/05/07 00:06:35;;;;;;;7.23;4.73;;;6.30;99.90;;;;;;5035482;28;20522;-50
2021/05/07 00:09:05;;;;;;;6.40;4.70;;;6.30;99.90;;;;;;5032175;28;20569;-50
2021/05/07 00:11:34;;;;;;;5.77;4.23;;;6.20;99.90;;;;;;5035782;28;20278;-50
2021/05/07 00:14:01;;;;;;;8.43;5.20;;;6.20;99.90;;;;;;5035241;28;20211;-50
2021/05/07 00:16:28;;;;;;;5.10;4.40;;;6.20;99.90;;;;;;5035915;28;20216;-51
2021/05/07 00:18:55;;;;;;;7.50;4.87;;;6.20;99.90;;;;;;5035894;28;20202;-50
2021/05/07 00:21:37;;;;;;;8.50;5.57;;;6.10;99.90;;;;;;5034120;28;20195;-51
2021/05/07 00:24:05;;;;;;;10.33;5.10;;;6.10;99.90;;;;;;5035119;28;20212;-50
2021/05/07 00:26:31;;;;;;;6.50;4.97;;;6.10;99.90;;;;;;5036176;28;20289;-50
2021/05/07 00:28:58;;;;;;;6.97;5.20;;;6.00;99.90;;;;;;5036559;28;20236;-51
2021/05/07 00:31:24;;;;;;;5.90;4.60;;;6.00;99.90;;;;;;5034475;28;20255;-50
2021/05/07 00:33:50;;;;;;;7.13;5.10;;;6.00;99.90;;;;;;5036462;28;20243;-51
2021/05/07 00:36:16;;;;;;;8.87;5.50;;;5.90;99.90;;;;;;5034930;28;20242;-50
2021/05/07 00:38:43;;;;;;;8.87;5.67;;;6.10;99.90;;;;;;5034833;28;20298;-50
2021/05/07 00:41:09;;;;;;;6.67;5.33;;;6.00;99.90;;;;;;5036212;28;20329;-50
2021/05/07 00:43:38;;;;;;;8.03;5.50;;;5.90;99.90;;;;;;5031566;28;20560;-51
2021/05/07 00:46:05;;;;;;;8.20;5.77;;;5.90;99.90;;;;;;5033877;28;20220;-50
2021/05/07 00:48:31;;;;;;;7.37;5.70;;;5.90;99.90;;;;;;5034877;28;20316;-50
2021/05/07 00:50:58;;;;;;;8.73;6.43;;;6.00;99.90;;;;;;5038127;28;20686;-50
2021/05/07 00:53:27;;;;;;;9.23;6.10;;;6.00;99.90;;;;;;5039216;28;20204;-51
2021/05/07 00:55:54;;;;;;;8.40;6.10;;;6.00;99.90;;;;;;5038523;28;20236;-51
2021/05/07 00:58:22;;;;;;;9.60;6.33;;;5.90;99.90;;;;;;5039558;28;20223;-50
2021/05/07 01:00:51;;;;;;;9.07;6.30;;;6.00;99.90;;;;;;5035267;28;20234;-50
2021/05/07 01:03:17;;;;;;;9.90;7.17;;;6.00;99.90;;;;;;5039408;28;20208;-50
2021/05/07 01:05:44;;;;;;;10.20;6.87;;;5.90;99.90;;;;;;5039168;28;20313;-50
2021/05/07 01:08:12;;;;;;;7.80;5.60;;;5.80;99.90;;;;;;5038434;28;20207;-50
2021/05/07 01:10:38;;;;;;;12.03;7.50;;;5.70;99.90;;;;;;5038176;28;20296;-50
2021/05/07 01:13:04;;;;;;;11.67;7.37;;;5.70;99.90;;;;;;5039814;28;20651;-50
2021/05/07 01:15:40;;;;;;;9.80;7.53;;;5.80;99.90;;;;;;5037274;28;20203;-50
2021/05/07 01:18:07;;;;;;;10.13;7.20;;;5.90;99.90;;;;;;5039457;28;20212;-50
2021/05/07 01:20:34;;;;;;;9.37;7.17;;;5.90;99.90;;;;;;5037859;28;20288;-50
2021/05/07 01:23:04;;;;;;;8.47;6.50;;;5.80;99.90;;;;;;5038297;28;20285;-50
2021/05/07 01:25:37;;;;;;;12.90;6.87;;;5.90;99.90;;;;;;5037842;28;20246;-50
2021/05/07 01:28:06;;;;;;;8.93;6.87;;;6.00;99.90;;;;;;5038576;28;20274;-51
2021/05/07 01:30:36;;;;;;;11.10;7.37;;;5.80;99.90;;;;;;5038038;28;20219;-50
2021/05/07 01:33:04;;;;;;;10.57;7.37;;;5.90;99.90;;;;;;5036521;28;20654;-50
2021/05/07 01:35:32;;;;;;;9.70;7.50;;;5.70;99.90;;;;;;5038313;28;20258;-53
2021/05/07 01:38:04;;;;;;;8.53;6.73;;;5.70;99.90;;;;;;5037748;28;20219;-51
2021/05/07 01:40:33;;;;;;;10.37;7.13;;;5.40;99.90;;;;;;5037278;28;20273;-51
2021/05/07 01:43:00;;;;;;;9.83;7.60;;;5.50;99.90;;;;;;5038462;28;20260;-51
2021/05/07 01:45:38;;;;;;;8.67;7.17;;;5.70;99.90;;;;;;5037113;28;20269;-51
2021/05/07 01:48:07;;;;;;;9.83;7.77;;;5.60;99.90;;;;;;5037975;28;20254;-51
2021/05/07 01:50:36;;;;;;;11.60;7.40;;;5.70;99.90;;;;;;5038828;28;20270;-50
2021/05/07 01:53:03;;;;;;;10.57;7.93;;;5.80;99.90;;;;;;5037708;28;20238;-51
2021/05/07 01:55:35;;;;;;;12.13;8.07;;;5.90;99.90;;;;;;5031834;28;20249;-51
2021/05/07 01:58:04;;;;;;;9.97;7.23;;;5.90;99.90;;;;;;5038483;28;20313;-51
2021/05/07 02:00:31;;;;;;;11.70;7.77;;;5.90;99.90;;;;;;5035270;28;20221;-51
2021/05/07 02:03:00;;;;;;;11.23;7.00;;;5.90;99.90;;;;;;5038191;28;20241;-51
2021/05/07 02:05:28;;;;;;;10.13;7.03;;;5.90;99.90;;;;;;5037989;28;20220;-51
2021/05/07 02:07:55;;;;;;;12.13;7.67;;;5.80;99.90;;;;;;5031737;28;20264;-51
2021/05/07 02:10:24;;;;;;;13.07;8.00;;;6.00;99.90;;;;;;5031773;28;20208;-51
2021/05/07 02:12:52;;;;;;;11.07;8.27;;;6.00;99.90;;;;;;5038495;28;20279;-51
2021/05/07 02:15:20;;;;;;;10.90;7.93;;;5.90;99.90;;;;;;5030360;28;20267;-51
2021/05/07 02:17:47;;;;;;;11.57;8.17;;;5.60;99.90;;;;;;5037811;28;20203;-51
2021/05/07 02:20:16;;;;;;;12.00;7.73;;;5.60;99.90;;;;;;5036607;28;20211;-50
2021/05/07 02:22:46;;;;;;;10.97;7.67;;;5.70;99.90;;;;;;5038235;28;20219;-51
2021/05/07 02:25:18;;;;;;;10.70;8.17;;;5.70;99.90;;;;;;5036121;28;20317;-51
2021/05/07 02:27:45;;;;;;;10.00;7.73;;;5.80;99.90;;;;;;5038513;28;20272;-51
2021/05/07 02:30:14;;;;;;;12.33;8.17;;;5.90;99.90;;;;;;5036036;28;20683;-51
2021/05/07 02:32:40;;;;;;;11.00;7.90;;;6.00;99.90;;;;;;5038706;28;20548;-51
2021/05/07 02:35:08;;;;;;;9.53;7.53;;;6.00;99.90;;;;;;5037576;28;20241;-51
2021/05/07 02:37:34;;;;;;;9.83;7.40;;;6.00;99.90;;;;;;5037044;28;20243;-51
2021/05/07 02:40:00;;;;;;;12.70;8.40;;;5.90;99.90;;;;;;5036717;28;20304;-51
2021/05/07 02:42:27;;;;;;;11.80;8.50;;;6.00;99.90;;;;;;5037683;28;20659;-51
2021/05/07 02:44:53;;;;;;;11.83;8.23;;;6.10;99.90;;;;;;5035779;28;20227;-51
2021/05/07 02:47:19;;;;;;;12.57;8.20;;;6.00;99.90;;;;;;5036399;28;20690;-51
2021/05/07 02:49:47;;;;;;;10.73;8.20;;;5.90;99.90;;;;;;5037150;28;20624;-51
2021/05/07 02:52:13;;;;;;;11.43;8.20;;;6.00;99.90;;;;;;5037375;28;20223;-51
2021/05/07 02:54:40;;;;;;;9.63;8.57;;;5.80;99.90;;;;;;5035802;28;20646;-51
2021/05/07 02:57:07;;;;;;;10.70;8.07;;;5.80;99.90;;;;;;5037628;28;20631;-51
2021/05/07 02:59:33;;;;;;;13.17;8.27;;;5.90;99.90;;;;;;5035813;28;20688;-51
2021/05/07 03:01:59;;;;;;;10.67;8.23;;;5.90;99.90;;;;;;5032383;28;20199;-51
2021/05/07 03:04:26;;;;;;;10.43;8.47;;;6.10;99.90;;;;;;5030586;28;20287;-51
2021/05/07 03:06:52;;;;;;;14.40;8.63;;;6.10;99.90;;;;;;5036176;28;20288;-51
2021/05/07 03:09:19;;;;;;;12.33;8.67;;;6.10;99.90;;;;;;5034984;28;20274;-51
2021/05/07 03:11:45;;;;;;;13.97;9.33;;;6.10;99.90;;;;;;5031062;28;20204;-51
2021/05/07 03:14:12;;;;;;;12.00;8.40;;;6.10;99.90;;;;;;5036264;28;20305;-51
2021/05/07 03:16:39;;;;;;;11.90;8.47;;;6.10;99.90;;;;;;5036185;28;20360;-51
2021/05/07 03:19:06;;;;;;;12.37;8.83;;;6.20;99.90;;;;;;5037578;28;20572;-50
2021/05/07 03:21:32;;;;;;;11.93;9.07;;;6.30;99.90;;;;;;5031427;28;20245;-50
2021/05/07 03:23:59;;;;;;;11.23;8.13;;;6.30;99.90;;;;;;5020469;28;20215;-53
2021/05/07 03:26:25;;;;;;;12.63;9.30;;;6.20;99.90;;;;;;5038525;28;20247;-51
2021/05/07 03:28:52;;;;;;;13.00;8.40;;;6.30;99.90;;;;;;5031161;28;20241;-51
2021/05/07 03:31:18;;;;;;;7.23;5.17;;;6.30;99.90;;;;;;5035287;28;20238;-51
2021/05/07 03:33:45;;;;;;;13.67;8.20;;;6.00;99.90;;;;;;5035966;28;20239;-51
2021/05/07 03:36:12;;;;;;;9.67;7.97;;;6.10;99.90;;;;;;5035660;28;20234;-51
2021/05/07 03:38:38;;;;;;;10.80;7.07;;;6.00;99.90;;;;;;5036002;28;20236;-51
2021/05/07 03:41:05;;;;;;;9.43;6.33;;;6.00;99.90;;;;;;5035558;28;20235;-51
2021/05/07 03:43:31;;;;;;;5.10;2.90;;;6.10;99.90;;;;;;5031104;28;20289;-51
2021/05/07 03:45:58;;;;;;;4.83;2.50;;;6.00;99.90;;;;;;5034824;28;20289;-51
2021/05/07 03:48:24;;;;;;;4.00;2.50;;;6.00;1.00;;;;;;5035769;28;20591;-51
2021/05/07 03:50:52;;;;;;;4.07;2.70;;;6.20;1.00;;;;;;5035882;28;20253;-51
2021/05/07 03:53:19;;;;;;;2.63;2.33;;;6.00;1.00;;;;;;5035127;28;20550;-51
2021/05/07 03:55:46;;;;;;;3.50;2.90;;;6.00;1.00;;;;;;5035646;28;20276;-51
2021/05/07 03:58:13;;;;;;;3.80;2.83;;;6.00;1.00;;;;;;5035945;28;20246;-51
2021/05/07 04:00:41;;;;;;;2.80;2.30;;;6.00;1.00;;;;;;5034844;28;20299;-51
2021/05/07 04:03:07;;;;;;;3.27;2.57;;;6.00;67.90;;;;;;5036248;28;20216;-51
2021/05/07 04:05:34;;;;;;;5.20;2.60;;;5.80;83.70;;;;;;5034680;28;20216;-51
2021/05/07 04:08:20;;;;;;;4.70;2.60;;;5.60;99.90;;;;;;5035177;28;20228;-50
2021/05/07 04:10:52;;;;;;;2.73;2.07;;;5.20;99.90;;;;;;5035554;28;20241;-51
2021/05/07 04:15:57;;;;;;;2.83;2.50;;;5.00;99.90;;;;;;5035594;28;20298;-51
2021/05/07 04:18:24;;;;;;;4.07;2.50;;;4.70;99.90;;;;;;5036529;28;20215;-51
2021/05/07 04:20:50;;;;;;;2.93;2.13;;;4.80;99.90;;;;;;5036279;28;20200;-51
2021/05/07 04:23:17;;;;;;;3.13;2.47;;;4.60;99.90;;;;;;5035837;28;20305;-51
2021/05/07 04:25:43;;;;;;;6.53;3.30;;;4.60;99.90;;;;;;5040525;28;20246;-50
2021/05/07 04:28:09;;;;;;;5.17;3.20;;;4.40;99.90;;;;;;5040378;28;20237;-51
2021/05/07 04:30:36;;;;;;;6.00;2.67;;;4.50;99.90;;;;;;5039677;28;20225;-50
2021/05/07 04:33:02;;;;;;;3.60;2.43;;;4.40;99.90;;;;;;5038471;28;20250;-51
2021/05/07 04:35:28;;;;;;;3.57;2.50;;;4.10;99.90;;;;;;5040120;28;20334;-50
2021/05/07 04:37:54;;;;;;;4.40;2.77;;;3.80;99.90;;;;;;5037605;28;20251;-50
2021/05/07 04:40:21;;;;;;;3.23;2.60;;;3.60;99.90;;;;;;5039540;28;20208;-51
2021/05/07 04:42:47;;;;;;;4.67;3.20;;;3.60;99.90;;;;;;5040058;28;20247;-51
2021/05/07 04:45:13;;;;;;;5.43;3.10;;;3.60;99.90;;;;;;5032541;28;20344;-51
2021/05/07 04:47:40;;;;;;;4.23;2.70;;;3.60;99.90;;;;;;5039546;28;20831;-51
2021/05/07 04:50:08;;;;;;;6.27;3.03;;;3.60;99.90;;;;;;5039860;28;20203;-51
2021/05/07 04:52:34;;;;;;;4.30;2.87;;;3.20;99.90;;;;;;5039010;28;20204;-51
2021/05/07 04:55:01;;;;;;;3.90;2.97;;;3.00;99.90;;;;;;5038604;28;20634;-50
2021/05/07 04:57:28;;;;;;;3.33;2.70;;;2.90;99.90;;;;;;5039006;28;20652;-50
2021/05/07 04:59:55;;;;;;;4.97;3.50;;;2.90;99.90;;;;;;5036819;28;20270;-50
2021/05/07 05:02:22;;;;;;;3.13;2.83;;;2.80;99.90;;;;;;5045084;28;20236;-50
2021/05/07 05:04:50;;;;;;;3.90;3.00;;;2.60;99.90;;;;;;5039348;28;20204;-51
2021/05/07 05:07:16;;;;;;;3.60;3.23;;;2.70;99.90;;;;;;5037893;28;20208;-50
2021/05/07 05:09:42;;;;;;;3.17;2.70;;;2.80;99.90;;;;;;5039076;28;20211;-50
2021/05/07 05:12:09;;;;;;;3.13;2.70;;;2.80;99.90;;;;;;5033993;28;20211;-50
2021/05/07 05:14:35;;;;;;;3.80;2.73;;;3.00;99.90;;;;;;5037175;28;20525;-50
2021/05/07 05:17:01;;;;;;;3.77;3.10;;;3.00;99.90;;;;;;5039264;28;20282;-51
2021/05/07 05:19:28;;;;;;;4.10;2.93;;;3.00;99.90;;;;;;5038960;28;20280;-50
2021/05/07 05:21:54;;;;;;;4.10;2.77;;;3.00;99.90;;;;;;5038155;28;20255;-50
2021/05/07 05:24:21;;;;;;;4.53;2.77;;;3.30;99.90;;;;;;5034684;28;20238;-50
2021/05/07 05:26:47;;;;;;;4.17;2.83;;;3.50;99.90;;;;;;5039485;28;20259;-50
2021/05/07 05:29:14;;;;;;;3.70;2.93;;;3.70;99.90;;;;;;5038823;28;20581;-53
2021/05/07 05:31:41;;;;;;;4.37;2.90;;;3.80;99.90;;;;;;5038476;28;20279;-50
2021/05/07 05:34:07;;;;;;;4.47;3.13;;;3.80;99.90;;;;;;5038607;28;20262;-52
2021/05/07 05:36:34;;;;;;;3.83;2.87;;;3.80;99.90;;;;;;5031722;28;20307;-50
2021/05/07 05:39:00;;;;;;;5.33;3.00;;;4.00;99.90;;;;;;5039017;28;20298;-51
2021/05/07 05:41:27;;;;;;;5.33;3.10;;;4.30;99.90;;;;;;5037841;28;20204;-50
2021/05/07 05:43:53;;;;;;;4.17;3.10;;;4.30;99.90;;;;;;5039642;28;20819;-50
2021/05/07 05:46:19;;;;;;;3.97;3.03;;;4.50;99.90;;;;;;5037383;28;20252;-50
2021/05/07 05:48:45;;;;;;;5.30;2.87;;;4.50;99.90;;;;;;5038833;28;20207;-51
2021/05/07 05:51:12;;;;;;;3.73;2.77;;;4.60;99.90;;;;;;5037822;28;20537;-50
2021/05/07 05:53:38;;;;;;;4.37;3.00;;;4.60;99.90;;;;;;5038521;28;20660;-53
2021/05/07 05:56:05;;;;;;;4.40;3.27;;;4.80;99.90;;;;;;5036953;28;20742;-50
2021/05/07 05:58:32;;;;;;;3.97;2.90;;;4.80;99.90;;;;;;5038452;28;20213;-50
2021/05/07 06:00:59;;;;;;;4.33;3.17;;;4.90;99.90;;;;;;5031713;28;20383;-50
2021/05/07 06:03:25;;;;;;;3.53;3.13;;;4.90;99.90;;;;;;5038583;28;20236;-50
2021/05/07 06:05:52;;;;;;;3.80;2.67;;;4.90;99.90;;;;;;5037250;28;20268;-50
2021/05/07 06:08:18;;;;;;;5.03;3.40;;;5.00;99.90;;;;;;5037082;28;20203;-53
2021/05/07 06:10:44;;;;;;;5.07;3.17;;;5.10;99.90;;;;;;5036052;28;20236;-53
2021/05/07 06:13:11;;;;;;;4.23;3.57;;;5.20;99.90;;;;;;5034037;28;20204;-51
2021/05/07 06:15:37;;;;;;;6.47;3.37;;;5.30;99.90;;;;;;5037111;28;20205;-51
2021/05/07 06:18:04;;;;;;;5.10;3.43;;;5.50;99.90;;;;;;5038560;28;20212;-50
2021/05/07 06:20:30;;;;;;;5.60;3.20;;;5.50;99.90;;;;;;5037173;28;20235;-51
2021/05/07 06:22:57;;;;;;;3.57;2.87;;;5.30;99.90;;;;;;5038276;28;20587;-51
2021/05/07 06:25:26;;;;;;;4.80;3.27;;;5.40;99.90;;;;;;5030659;28;20308;-51
2021/05/07 06:27:53;;;;;;;3.93;3.20;;;5.50;99.90;;;;;;5037916;28;20270;-51
2021/05/07 06:30:20;;;;;;;3.93;3.27;;;5.50;99.90;;;;;;5036356;28;20686;-50
2021/05/07 06:32:46;;;;;;;4.00;3.20;;;5.70;99.90;;;;;;5038121;28;20255;-51
2021/05/07 06:35:13;;;;;;;7.93;4.03;;;5.90;99.90;;;;;;5037188;28;20742;-51
2021/05/07 06:37:42;;;;;;;4.47;3.60;;;5.70;99.90;;;;;;5037344;28;20666;-51
2021/05/07 06:40:09;;;;;;;3.97;3.50;;;6.00;99.90;;;;;;5036771;28;20679;-50
2021/05/07 06:42:37;;;;;;;4.83;4.30;;;6.30;99.90;;;;;;5038476;28;20214;-50
2021/05/07 06:45:06;;;;;;;5.87;4.47;;;6.10;99.90;;;;;;5036139;28;20236;-51
2021/05/07 06:47:33;;;;;;;5.27;3.90;;;5.90;99.90;;;;;;5037761;28;20208;-51
2021/05/07 06:49:59;;;;;;;5.03;4.27;;;5.80;99.90;;;;;;5037479;28;20513;-51
2021/05/07 06:52:26;;;;;;;5.33;4.83;;;5.80;99.90;;;;;;5036097;28;20251;-51
2021/05/07 06:54:53;;;;;;;6.10;4.77;;;6.10;99.90;;;;;;5036565;28;20799;-51
2021/05/07 06:57:19;;;;;;;8.93;3.90;;;6.60;99.90;;;;;;5032632;28;20569;-51
2021/05/07 06:59:47;;;;;;;5.33;3.70;;;6.80;99.90;;;;;;5035033;28;20290;-51
2021/05/07 07:02:15;;;;;;;4.23;3.57;;;7.10;99.90;;;;;;5036272;28;20267;-51
2021/05/07 07:04:42;;;;;;;3.93;3.43;;;7.20;99.90;;;;;;5036833;28;20308;-51
2021/05/07 07:07:09;;;;;;;5.20;3.30;;;7.60;99.90;;;;;;5036651;28;20568;-51
2021/05/07 07:09:35;;;;;;;4.63;3.33;;;7.60;1.00;;;;;;5037917;28;20748;-50
2021/05/07 07:12:01;;;;;;;3.50;3.20;;;7.50;1.00;;;;;;5035484;28;20200;-51
2021/05/07 07:14:28;;;;;;;4.53;3.10;;;7.50;1.00;;;;;;5037737;28;20621;-51
2021/05/07 07:16:54;;;;;;;3.73;2.87;;;7.60;1.00;;;;;;5038832;28;20246;-51
2021/05/07 07:19:20;;;;;;;2.73;2.30;;;7.90;1.00;;;;;;5037190;28;20209;-51
2021/05/07 07:22:05;;;;;;;3.20;2.90;;;7.90;1.00;;;;;;5036057;28;20213;-51
2021/05/07 07:24:32;;;;;;;4.93;2.70;;;7.60;1.00;;;;;;5037121;28;20300;-51
2021/05/07 07:26:58;;;;;;;2.73;2.53;;;7.60;1.00;;;;;;5035871;28;20671;-51
2021/05/07 07:29:24;;;;;;;4.77;2.70;;;8.30;1.00;;;;;;5036529;28;20646;-52
2021/05/07 07:31:51;;;;;;;3.70;2.63;;;8.50;1.00;;;;;;5030731;28;20306;-51
2021/05/07 07:34:19;;;;;;;2.63;2.10;;;8.60;1.00;;;;;;5036443;28;20248;-51
2021/05/07 07:36:46;;;;;;;2.57;2.10;;;8.20;58.20;;;;;;5036728;28;20217;-51
2021/05/07 07:39:14;;;;;;;4.23;2.53;;;8.30;99.90;;;;;;5036628;28;20220;-51
2021/05/07 07:41:40;;;;;;;2.63;2.43;;;8.30;1.00;;;;;;5036627;28;20200;-52
2021/05/07 07:44:07;;;;;;;2.73;2.33;;;8.50;99.90;;;;;;5036933;28;20220;-52
2021/05/07 07:46:34;;;;;;;4.33;3.27;;;8.50;1.00;;;;;;5035855;28;20222;-51
2021/05/07 07:49:00;;;;;;;3.23;2.60;;;8.80;99.90;;;;;;5036342;28;20201;-52
2021/05/07 07:51:30;;;;;;;4.57;2.50;;;9.10;1.00;;;;;;5035547;28;20625;-51
2021/05/07 07:53:57;;;;;;;3.27;2.40;;;9.00;99.90;;;;;;5033988;28;20201;-52
2021/05/07 07:56:24;;;;;;;3.90;2.67;;;9.40;1.00;;;;;;5036938;28;20270;-52
2021/05/07 07:58:51;;;;;;;5.90;2.40;;;9.20;1.00;;;;;;5036413;28;20579;-52
2021/05/07 08:01:18;;;;;;;3.13;2.63;;;9.00;99.90;;;;;;5035110;28;20214;-52
2021/05/07 08:03:45;;;;;;;3.27;2.17;;;9.10;99.90;;;;;;5036324;28;20237;-52
2021/05/07 08:06:12;;;;;;;4.80;2.57;;;9.50;1.00;;;;;;5035771;28;20231;-52
2021/05/07 08:08:38;;;;;;;3.90;2.40;;;9.30;1.00;;;;;;5035827;28;20599;-52
2021/05/07 08:11:05;;;;;;;3.70;2.47;;;9.70;99.90;;;;;;5030491;28;20213;-52
2021/05/07 08:13:31;;;;;;;4.00;2.67;;;9.90;1.00;;;;;;5031055;28;20254;-51
2021/05/07 08:15:57;;;;;;;3.03;2.53;;;10.00;1.00;;;;;;5034942;28;20200;-52
2021/05/07 08:18:24;;;;;;;3.77;2.57;;;10.10;1.00;;;;;;5035081;28;20266;-51
2021/05/07 08:20:50;;;;;;;3.20;2.70;;;10.10;99.90;;;;;;5037045;28;20247;-51
2021/05/07 08:23:17;;;;;;;4.13;3.00;;;10.00;1.00;;;;;;5030527;28;20213;-52
2021/05/07 08:25:43;;;;;;;3.50;2.70;;;10.20;99.90;;;;;;5037169;28;20594;-52
2021/05/07 08:28:10;;;;;;;4.20;2.90;;;10.20;1.00;;;;;;5036708;28;20671;-51
2021/05/07 08:30:36;;;;;;;5.17;3.23;;;10.60;73.40;;;;;;5035338;28;20286;-52
2021/05/07 08:33:03;;;;;;;3.53;2.63;;;11.00;1.00;;;;;;5035507;28;21011;-51
2021/05/07 08:35:32;;;;;;;2.90;2.30;;;11.40;99.90;;;;;;5036183;28;20335;-52
2021/05/07 08:37:59;;;;;;;3.00;2.60;;;11.30;1.00;;;;;;5035448;28;20301;-52
2021/05/07 08:40:26;;;;;;;4.83;2.70;;;11.50;1.00;;;;;;5035270;28;20296;-51
2021/05/07 08:42:54;;;;;;;5.63;2.90;;;11.40;1.00;;;;;;5034984;28;20289;-51
2021/05/07 08:45:21;;;;;;;2.90;2.47;;;10.80;1.00;;;;;;5035255;28;20346;-53
2021/05/07 08:48:09;;;;;;;4.43;2.73;;;10.50;1.00;;;;;;5034841;28;20259;-52
2021/05/07 08:50:40;;;;;;;4.10;2.83;;;10.80;99.90;;;;;;5035937;28;20293;-52
2021/05/07 08:53:08;;;;;;;3.67;2.90;;;11.20;99.90;;;;;;5035122;28;20296;-51
2021/05/07 08:55:35;;;;;;;5.67;3.33;;;10.90;1.00;;;;;;5036186;28;20193;-51
2021/05/07 08:58:01;;;;;;;4.47;2.30;;;10.70;1.00;;;;;;5035445;28;20212;-52
2021/05/07 09:00:28;;;;;;;3.00;2.70;;;10.30;1.00;;;;;;5035086;28;20204;-51
2021/05/07 09:03:08;;;;;;;6.73;2.10;;;10.40;1.00;;;;;;5036056;28;20215;-52
2021/05/07 09:05:37;;;;;;;5.67;2.30;;;10.90;1.00;;;;;;5035013;28;20352;-51
2021/05/07 09:08:05;;;;;;;4.57;2.97;;;11.40;1.00;;;;;;5035111;28;20632;-52
2021/05/07 09:10:46;;;;;;;3.30;2.60;;;11.90;1.00;;;;;;5036691;28;20205;-51
2021/05/07 09:13:19;;;;;;;3.77;3.03;;;12.20;99.90;;;;;;5039691;28;20262;-51
2021/05/07 09:15:46;;;;;;;3.33;2.80;;;11.60;99.90;;;;;;5037860;28;20259;-51
2021/05/07 09:18:14;;;;;;;5.33;2.80;;;11.40;99.90;;;;;;5038412;28;20211;-51
2021/05/07 09:20:42;;;;;;;2.93;2.47;;;11.20;99.90;;;;;;5039591;28;20252;-51
2021/05/07 09:23:11;;;;;;;5.67;2.60;;;11.30;99.90;;;;;;5038933;28;20303;-51
2021/05/07 09:25:46;;;;;;;4.73;1.97;;;11.40;1.00;;;;;;5039977;28;20226;-52
2021/05/07 09:28:15;;;;;;;3.57;2.00;;;11.60;1.00;;;;;;5039882;28;20772;-52
2021/05/07 09:30:42;;;;;;;4.00;2.30;;;11.60;1.00;;;;;;5037289;28;20291;-51
2021/05/07 09:33:10;;;;;;;5.13;3.40;;;12.10;99.90;;;;;;5038635;28;20773;-52
2021/05/07 09:35:38;;;;;;;3.90;3.30;;;11.30;1.00;;;;;;5038936;28;20235;-51
2021/05/07 09:38:10;;;;;;;3.60;3.30;;;11.70;99.90;;;;;;5037622;28;20306;-51
2021/05/07 09:40:37;;;;;;;4.97;2.87;;;11.10;99.90;;;;;;5037625;28;20224;-52
2021/05/07 09:43:12;;;;;;;4.10;3.10;;;10.80;99.90;;;;;;5038853;28;20263;-51
2021/05/07 09:45:40;;;;;;;3.80;3.10;;;10.90;1.00;;;;;;5038135;28;20352;-52
2021/05/07 09:48:24;;;;;;;5.00;3.00;;;10.90;99.90;;;;;;5038665;28;20239;-52
2021/05/07 09:51:05;;;;;;;3.30;2.77;;;10.70;99.90;;;;;;5038478;28;20265;-51
2021/05/07 09:53:34;;;;;;;4.10;3.70;;;11.00;99.90;;;;;;5039214;28;20208;-53
2021/05/07 09:56:13;;;;;;;3.80;3.50;;;11.10;1.00;;;;;;5038637;28;20289;-51
2021/05/07 09:58:40;;;;;;;4.63;3.50;;;11.30;1.00;;;;;;5038062;28;20208;-51
2021/05/07 10:01:07;;;;;;;5.07;4.17;;;10.80;1.00;;;;;;5036733;28;20204;-51
2021/05/07 10:03:34;;;;;;;4.93;3.80;;;11.10;1.00;;;;;;5038402;28;20786;-51
2021/05/07 10:06:04;;;;;;;5.63;3.80;;;11.30;99.90;;;;;;5032206;28;20278;-53
2021/05/07 10:08:42;;;;;;;4.67;3.60;;;11.90;99.90;;;;;;5037039;28;20245;-51
2021/05/07 10:11:10;;;;;;;4.40;4.00;;;12.30;1.00;;;;;;5038877;28;20231;-51
2021/05/07 10:13:38;;;;;;;5.30;3.60;;;11.70;1.00;;;;;;5038775;28;20236;-51
2021/05/07 10:16:07;;;;;;;6.90;3.50;;;11.70;91.20;;;;;;5037353;28;20212;-51
2021/05/07 10:18:35;;;;;;;3.57;2.63;;;11.80;1.00;;;;;;5038042;28;20585;-51
2021/05/07 10:21:13;;;;;;;3.60;3.20;;;11.80;1.00;;;;;;5037355;28;20243;-52
2021/05/07 10:23:53;;;;;;;4.23;3.37;;;12.20;1.00;;;;;;5031962;28;20270;-52
2021/05/07 10:26:33;;;;;;;6.23;3.23;;;12.40;1.00;;;;;;5038367;28;20302;-51
2021/05/07 10:28:59;;;;;;;5.50;2.90;;;12.20;1.00;;;;;;5037609;28;20288;-52
2021/05/07 10:31:25;;;;;;;4.97;3.20;;;12.10;1.00;;;;;;5031353;28;20260;-52
2021/05/07 10:34:00;;;;;;;2.20;2.00;;;11.70;1.00;;;;;;5037526;28;20260;-51
2021/05/07 10:36:43;;;;;;;4.17;2.10;;;11.90;1.00;;;;;;5037543;28;20211;-52
2021/05/07 10:39:17;;;;;;;3.63;1.97;;;12.30;1.00;;;;;;5037974;28;20662;-51
2021/05/07 10:41:43;;;;;;;2.67;2.17;;;12.70;99.90;;;;;;5038209;28;20687;-51
2021/05/07 10:44:11;;;;;;;5.13;2.60;;;13.00;99.90;;;;;;5037700;28;20306;-52
2021/05/07 10:46:37;;;;;;;3.50;2.73;;;12.90;99.90;;;;;;5036751;28;20216;-52
2021/05/07 10:49:04;;;;;;;2.43;2.07;;;12.20;99.90;;;;;;5037481;28;20227;-52
2021/05/07 10:51:30;;;;;;;1.70;1.60;;;12.20;99.90;;;;;;5037810;28;20280;-52
2021/05/07 10:54:11;;;;;;;2.47;2.23;;;11.90;99.90;;;;;;5037484;28;20715;-52
2021/05/07 10:56:40;;;;;;;7.53;2.47;;;11.90;99.90;;;;;;5038482;28;20216;-52
2021/05/07 10:59:18;;;;;;;3.07;2.27;;;12.30;99.90;;;;;;5037809;28;20266;-52
2021/05/07 11:02:01;;;;;;;3.93;1.87;;;12.30;99.90;;;;;;5038602;28;20246;-52
2021/05/07 11:04:49;;;;;;;2.90;2.33;;;12.50;99.90;;;;;;5037032;28;20209;-51
2021/05/07 11:07:29;;;;;;;3.03;2.73;;;12.50;99.90;;;;;;5035538;28;20274;-52
2021/05/07 11:10:13;;;;;;;4.23;2.60;;;12.10;1.00;;;;;;5037406;28;20233;-52
2021/05/07 11:12:44;;;;;;;4.13;2.40;;;11.90;1.00;;;;;;5035866;28;20240;-52
2021/05/07 11:15:16;;;;;;;2.83;2.53;;;12.20;1.00;;;;;;5035985;28;20319;-52
2021/05/07 11:17:42;;;;;;;3.73;2.70;;;12.00;1.00;;;;;;5038058;28;20280;-51
2021/05/07 11:20:09;;;;;;;2.23;2.00;;;12.20;99.90;;;;;;5035868;28;20661;-52
2021/05/07 11:22:39;;;;;;;4.03;2.30;;;12.80;99.90;;;;;;5038149;28;20216;-52
2021/05/07 11:25:09;;;;;;;4.20;2.93;;;13.30;99.90;;;;;;5036323;28;20201;-52
2021/05/07 11:27:37;;;;;;;4.27;3.00;;;12.80;99.90;;;;;;5037070;28;20236;-52
2021/05/07 11:30:04;;;;;;;3.13;2.70;;;12.40;99.90;;;;;;5030101;28;20365;-52
2021/05/07 11:32:32;;;;;;;3.37;2.43;;;12.70;99.90;;;;;;5030138;28;20209;-51
2021/05/07 11:35:17;;;;;;;2.63;2.20;;;13.20;99.90;;;;;;5034101;28;20762;-52
2021/05/07 11:37:44;;;;;;;3.33;2.23;;;13.60;99.90;;;;;;5036323;28;20209;-52
2021/05/07 11:40:14;;;;;;;4.60;2.80;;;13.70;99.90;;;;;;5035260;28;20306;-52
2021/05/07 11:42:43;;;;;;;4.23;2.90;;;13.90;99.90;;;;;;5036896;28;20245;-52
2021/05/07 11:45:20;;;;;;;5.33;3.00;;;13.90;99.90;;;;;;5034845;28;20669;-52
2021/05/07 11:47:47;;;;;;;5.20;3.03;;;12.90;99.90;;;;;;5030049;28;20212;-52
2021/05/07 11:50:18;;;;;;;9.00;2.60;;;12.70;99.90;;;;;;5037100;28;20215;-52
2021/05/07 11:52:50;;;;;;;2.87;2.57;;;13.60;99.90;;;;;;5036230;28;20245;-52
2021/05/07 11:55:20;;;;;;;2.93;1.67;;;14.00;99.90;;;;;;5036410;28;20226;-52
2021/05/07 11:57:59;;;;;;;5.23;2.63;;;14.60;99.90;;;;;;5036817;28;20221;-52
2021/05/07 12:00:26;;;;;;;2.90;2.50;;;14.50;99.90;;;;;;5035372;28;20215;-52
2021/05/07 12:03:16;;;;;;;3.73;2.47;;;14.80;99.90;;;;;;5037654;28;20229;-52
2021/05/07 12:05:45;;;;;;;3.77;2.33;;;15.20;99.90;;;;;;5036540;28;20210;-52
2021/05/07 12:08:12;;;;;;;3.30;2.27;;;14.30;99.90;;;;;;5034482;28;20219;-52
2021/05/07 12:10:44;;;;;;;2.87;2.20;;;14.00;99.90;;;;;;5030596;28;20206;-52
2021/05/07 12:13:23;;;;;;;2.67;2.47;;;14.50;99.90;;;;;;5036794;28;20201;-52
2021/05/07 12:15:51;;;;;;;4.57;2.30;;;14.50;99.90;;;;;;5035450;28;20857;-52
2021/05/07 12:18:20;;;;;;;3.30;2.20;;;14.60;99.90;;;;;;5031828;28;20279;-52
2021/05/07 12:21:05;;;;;;;3.20;1.80;;;14.30;99.90;;;;;;5035887;28;20598;-52
2021/05/07 12:23:42;;;;;;;4.27;2.20;;;15.10;99.90;;;;;;5034466;28;20269;-52
2021/05/07 12:26:08;;;;;;;2.67;2.30;;;15.10;99.90;;;;;;5036397;28;20245;-52
2021/05/07 12:28:35;;;;;;;2.83;2.53;;;15.20;99.90;;;;;;5036491;28;20276;-52
2021/05/07 12:31:06;;;;;;;3.23;2.40;;;14.90;99.90;;;;;;5034565;28;20281;-52
2021/05/07 12:33:36;;;;;;;2.50;2.30;;;15.30;99.90;;;;;;5035000;28;20274;-52
2021/05/07 12:36:15;;;;;;;4.53;2.90;;;15.50;99.90;;;;;;5036176;28;20324;-54
2021/05/07 12:38:42;;;;;;;3.20;2.80;;;15.60;99.90;;;;;;5034769;28;20553;-51
2021/05/07 12:41:16;;;;;;;4.23;2.27;;;16.00;99.90;;;;;;5034741;28;20211;-51
2021/05/07 12:43:44;;;;;;;3.70;2.00;;;17.90;99.90;;;;;;5037006;28;20611;-51
2021/05/07 12:46:13;;;;;;;3.20;2.63;;;18.50;92.50;;;;;;5038399;28;20773;-53
2021/05/07 12:48:56;;;;;;;3.17;2.47;;;18.00;62.30;;;;;;5040327;28;20211;-51
2021/05/07 12:51:24;;;;;;;3.00;2.70;;;16.60;57.00;;;;;;5039085;28;20207;-51
2021/05/07 12:53:52;;;;;;;3.77;2.30;;;16.50;66.60;;;;;;5039059;28;20293;-53
2021/05/07 12:56:22;;;;;;;3.80;2.50;;;17.50;67.60;;;;;;5038666;28;20202;-51
2021/05/07 12:58:49;;;;;;;2.97;2.40;;;17.10;55.10;;;;;;5039761;28;20206;-51
2021/05/07 13:01:15;;;;;;;4.17;2.83;;;16.30;53.00;;;;;;5038028;28;20216;-51
2021/05/07 13:03:42;;;;;;;3.27;2.57;;;16.70;51.00;;;;;;5039084;28;20265;-51